sensor_id;sensor_type;location;lat;lon;timestamp;P1;durP1;ratioP1;P2;durP2;ratioP2
35969;SDS011;22448;51.298;6.430;2023-04-30T00:02:10;21.25;;;13.85;;
35969;SDS011;22448;51.298;6.430;2023-04-30T00:04:38;27.23;;;13.77;;
35969;SDS011;22448;51.298;6.430;2023-04-30T00:07:05;25.35;;;14.65;;
35969;SDS011;22448;51.298;6.430;2023-04-30T00:09:32;24.67;;;14.73;;
35969;SDS011;22448;51.298;6.430;2023-04-30T00:11:59;26.85;;;15.02;;
35969;SDS011;22448;51.298;6.430;2023-04-30T00:14:26;23.88;;;14.65;;
35969;SDS011;22448;51.298;6.430;2023-04-30T00:16:53;27.45;;;14.90;;
35969;SDS011;22448;51.298;6.430;2023-04-30T00:19:20;27.15;;;15.73;;
35969;SDS011;22448;51.298;6.430;2023-04-30T00:21:47;23.15;;;14.45;;
35969;SDS011;22448;51.298;6.430;2023-04-30T00:24:14;23.23;;;14.25;;
35969;SDS011;22448;51.298;6.430;2023-04-30T00:26:41;25.75;;;14.73;;
35969;SDS011;22448;51.298;6.430;2023-04-30T00:29:09;26.38;;;15.50;;
35969;SDS011;22448;51.298;6.430;2023-04-30T00:31:36;30.00;;;15.98;;
35969;SDS011;22448;51.298;6.430;2023-04-30T00:34:03;25.70;;;16.10;;
35969;SDS011;22448;51.298;6.430;2023-04-30T00:36:30;26.15;;;16.40;;
35969;SDS011;22448;51.298;6.430;2023-04-30T00:38:58;33.55;;;18.67;;
35969;SDS011;22448;51.298;6.430;2023-04-30T00:41:25;26.05;;;17.15;;
35969;SDS011;22448;51.298;6.430;2023-04-30T00:43:52;30.95;;;17.40;;
35969;SDS011;22448;51.298;6.430;2023-04-30T00:46:19;27.90;;;17.73;;
35969;SDS011;22448;51.298;6.430;2023-04-30T00:48:46;29.45;;;17.95;;
35969;SDS011;22448;51.298;6.430;2023-04-30T00:51:15;27.15;;;17.08;;
35969;SDS011;22448;51.298;6.430;2023-04-30T00:53:42;29.58;;;17.40;;
35969;SDS011;22448;51.298;6.430;2023-04-30T00:56:09;31.02;;;18.08;;
35969;SDS011;22448;51.298;6.430;2023-04-30T00:58:38;31.52;;;18.83;;
35969;SDS011;22448;51.298;6.430;2023-04-30T01:01:06;29.80;;;17.30;;
35969;SDS011;22448;51.298;6.430;2023-04-30T01:03:33;30.92;;;18.45;;
35969;SDS011;22448;51.298;6.430;2023-04-30T01:06:22;30.50;;;17.98;;
35969;SDS011;22448;51.298;6.430;2023-04-30T01:19:28;34.83;;;18.77;;
35969;SDS011;22448;51.298;6.430;2023-04-30T01:32:40;28.20;;;18.75;;
35969;SDS011;22448;51.298;6.430;2023-04-30T02:10:19;32.45;;;20.02;;
35969;SDS011;22448;51.298;6.430;2023-04-30T02:14:38;35.80;;;20.95;;
35969;SDS011;22448;51.298;6.430;2023-04-30T02:22:28;38.35;;;21.52;;
35969;SDS011;22448;51.298;6.430;2023-04-30T02:26:13;31.02;;;20.50;;
35969;SDS011;22448;51.298;6.430;2023-04-30T02:29:21;34.33;;;20.73;;
35969;SDS011;22448;51.298;6.430;2023-04-30T02:46:12;32.15;;;20.73;;
35969;SDS011;22448;51.298;6.430;2023-04-30T03:16:22;34.70;;;21.42;;
35969;SDS011;22448;51.298;6.430;2023-04-30T03:37:22;40.55;;;24.27;;
35969;SDS011;22448;51.298;6.430;2023-04-30T03:40:09;38.95;;;24.48;;
35969;SDS011;22448;51.298;6.430;2023-04-30T03:44:04;45.05;;;25.42;;
35969;SDS011;22448;51.298;6.430;2023-04-30T03:46:40;46.00;;;27.00;;
35969;SDS011;22448;51.298;6.430;2023-04-30T03:49:09;42.83;;;25.85;;
35969;SDS011;22448;51.298;6.430;2023-04-30T03:51:37;39.63;;;25.17;;
35969;SDS011;22448;51.298;6.430;2023-04-30T03:54:07;43.70;;;26.33;;
35969;SDS011;22448;51.298;6.430;2023-04-30T03:56:35;43.47;;;25.60;;
35969;SDS011;22448;51.298;6.430;2023-04-30T03:59:03;41.22;;;25.80;;
35969;SDS011;22448;51.298;6.430;2023-04-30T04:01:32;41.72;;;26.92;;
35969;SDS011;22448;51.298;6.430;2023-04-30T04:03:58;42.35;;;26.75;;
35969;SDS011;22448;51.298;6.430;2023-04-30T04:06:26;43.60;;;27.10;;
35969;SDS011;22448;51.298;6.430;2023-04-30T04:08:53;40.55;;;26.92;;
35969;SDS011;22448;51.298;6.430;2023-04-30T04:11:21;40.05;;;26.15;;
35969;SDS011;22448;51.298;6.430;2023-04-30T04:13:48;41.53;;;27.15;;
35969;SDS011;22448;51.298;6.430;2023-04-30T04:16:15;47.20;;;26.90;;
35969;SDS011;22448;51.298;6.430;2023-04-30T04:18:42;43.20;;;28.20;;
35969;SDS011;22448;51.298;6.430;2023-04-30T04:21:10;44.10;;;27.80;;
35969;SDS011;22448;51.298;6.430;2023-04-30T04:23:38;41.88;;;27.30;;
35969;SDS011;22448;51.298;6.430;2023-04-30T04:26:05;45.25;;;28.67;;
35969;SDS011;22448;51.298;6.430;2023-04-30T04:28:32;50.00;;;29.00;;
35969;SDS011;22448;51.298;6.430;2023-04-30T04:30:59;43.97;;;28.25;;
35969;SDS011;22448;51.298;6.430;2023-04-30T04:33:28;48.95;;;30.67;;
35969;SDS011;22448;51.298;6.430;2023-04-30T04:35:55;48.00;;;30.83;;
35969;SDS011;22448;51.298;6.430;2023-04-30T04:38:23;49.65;;;31.40;;
35969;SDS011;22448;51.298;6.430;2023-04-30T04:40:51;48.38;;;30.80;;
35969;SDS011;22448;51.298;6.430;2023-04-30T04:43:20;49.10;;;30.23;;
35969;SDS011;22448;51.298;6.430;2023-04-30T04:45:47;53.33;;;31.88;;
35969;SDS011;22448;51.298;6.430;2023-04-30T04:48:15;50.03;;;29.40;;
35969;SDS011;22448;51.298;6.430;2023-04-30T04:50:42;45.20;;;29.33;;
35969;SDS011;22448;51.298;6.430;2023-04-30T04:53:09;47.20;;;29.95;;
35969;SDS011;22448;51.298;6.430;2023-04-30T04:55:36;45.45;;;29.75;;
35969;SDS011;22448;51.298;6.430;2023-04-30T04:58:04;44.65;;;28.40;;
35969;SDS011;22448;51.298;6.430;2023-04-30T05:00:32;41.97;;;28.27;;
35969;SDS011;22448;51.298;6.430;2023-04-30T05:02:59;41.58;;;26.67;;
35969;SDS011;22448;51.298;6.430;2023-04-30T05:05:26;40.28;;;26.40;;
35969;SDS011;22448;51.298;6.430;2023-04-30T05:07:53;42.15;;;27.17;;
35969;SDS011;22448;51.298;6.430;2023-04-30T05:10:20;40.10;;;26.98;;
35969;SDS011;22448;51.298;6.430;2023-04-30T05:12:47;42.45;;;26.48;;
35969;SDS011;22448;51.298;6.430;2023-04-30T05:15:14;40.42;;;26.10;;
35969;SDS011;22448;51.298;6.430;2023-04-30T05:17:41;39.90;;;26.45;;
35969;SDS011;22448;51.298;6.430;2023-04-30T05:20:09;41.38;;;25.70;;
35969;SDS011;22448;51.298;6.430;2023-04-30T05:22:37;38.53;;;23.98;;
35969;SDS011;22448;51.298;6.430;2023-04-30T05:25:04;30.38;;;20.13;;
35969;SDS011;22448;51.298;6.430;2023-04-30T05:27:32;28.23;;;17.48;;
35969;SDS011;22448;51.298;6.430;2023-04-30T05:29:59;25.88;;;15.23;;
35969;SDS011;22448;51.298;6.430;2023-04-30T05:32:26;26.80;;;14.43;;
35969;SDS011;22448;51.298;6.430;2023-04-30T05:34:53;21.70;;;13.73;;
35969;SDS011;22448;51.298;6.430;2023-04-30T05:37:21;21.92;;;13.15;;
35969;SDS011;22448;51.298;6.430;2023-04-30T05:39:48;23.90;;;12.57;;
35969;SDS011;22448;51.298;6.430;2023-04-30T05:42:15;20.20;;;12.35;;
35969;SDS011;22448;51.298;6.430;2023-04-30T05:44:42;17.30;;;11.68;;
35969;SDS011;22448;51.298;6.430;2023-04-30T05:47:09;20.85;;;12.45;;
35969;SDS011;22448;51.298;6.430;2023-04-30T05:49:36;17.00;;;11.05;;
35969;SDS011;22448;51.298;6.430;2023-04-30T05:52:03;19.80;;;12.88;;
35969;SDS011;22448;51.298;6.430;2023-04-30T05:54:30;16.65;;;12.13;;
35969;SDS011;22448;51.298;6.430;2023-04-30T05:56:57;20.90;;;13.80;;
35969;SDS011;22448;51.298;6.430;2023-04-30T05:59:24;20.27;;;13.90;;
35969;SDS011;22448;51.298;6.430;2023-04-30T06:01:51;28.13;;;15.15;;
35969;SDS011;22448;51.298;6.430;2023-04-30T06:04:18;23.67;;;13.95;;
35969;SDS011;22448;51.298;6.430;2023-04-30T06:06:45;20.38;;;12.27;;
35969;SDS011;22448;51.298;6.430;2023-04-30T06:09:13;19.50;;;12.30;;
35969;SDS011;22448;51.298;6.430;2023-04-30T06:11:40;20.50;;;12.43;;
35969;SDS011;22448;51.298;6.430;2023-04-30T06:14:08;18.50;;;12.77;;
35969;SDS011;22448;51.298;6.430;2023-04-30T06:16:35;23.75;;;13.45;;
35969;SDS011;22448;51.298;6.430;2023-04-30T06:19:03;20.70;;;13.15;;
35969;SDS011;22448;51.298;6.430;2023-04-30T06:21:30;21.23;;;11.90;;
35969;SDS011;22448;51.298;6.430;2023-04-30T06:23:57;23.90;;;13.10;;
35969;SDS011;22448;51.298;6.430;2023-04-30T06:26:24;21.45;;;12.07;;
35969;SDS011;22448;51.298;6.430;2023-04-30T06:28:52;22.55;;;12.15;;
35969;SDS011;22448;51.298;6.430;2023-04-30T06:31:19;21.80;;;12.02;;
35969;SDS011;22448;51.298;6.430;2023-04-30T06:33:47;18.75;;;12.55;;
35969;SDS011;22448;51.298;6.430;2023-04-30T06:36:14;17.80;;;12.27;;
35969;SDS011;22448;51.298;6.430;2023-04-30T06:38:41;17.02;;;11.63;;
35969;SDS011;22448;51.298;6.430;2023-04-30T06:41:08;21.98;;;11.68;;
35969;SDS011;22448;51.298;6.430;2023-04-30T06:43:35;20.38;;;12.25;;
35969;SDS011;22448;51.298;6.430;2023-04-30T06:46:02;18.50;;;11.00;;
35969;SDS011;22448;51.298;6.430;2023-04-30T06:48:30;15.30;;;11.15;;
35969;SDS011;22448;51.298;6.430;2023-04-30T06:50:57;19.00;;;10.98;;
35969;SDS011;22448;51.298;6.430;2023-04-30T06:53:24;15.68;;;10.77;;
35969;SDS011;22448;51.298;6.430;2023-04-30T06:55:51;17.80;;;10.68;;
35969;SDS011;22448;51.298;6.430;2023-04-30T06:58:18;14.98;;;10.60;;
35969;SDS011;22448;51.298;6.430;2023-04-30T07:00:45;18.27;;;10.80;;
35969;SDS011;22448;51.298;6.430;2023-04-30T07:03:12;16.20;;;10.48;;
35969;SDS011;22448;51.298;6.430;2023-04-30T07:05:39;16.00;;;10.98;;
35969;SDS011;22448;51.298;6.430;2023-04-30T07:08:07;13.85;;;9.55;;
35969;SDS011;22448;51.298;6.430;2023-04-30T07:10:33;15.15;;;10.25;;
35969;SDS011;22448;51.298;6.430;2023-04-30T07:13:00;18.73;;;10.55;;
35969;SDS011;22448;51.298;6.430;2023-04-30T07:15:27;13.27;;;10.23;;
35969;SDS011;22448;51.298;6.430;2023-04-30T07:17:54;22.40;;;11.23;;
35969;SDS011;22448;51.298;6.430;2023-04-30T07:20:21;14.68;;;10.13;;
35969;SDS011;22448;51.298;6.430;2023-04-30T07:22:48;18.70;;;10.63;;
35969;SDS011;22448;51.298;6.430;2023-04-30T07:25:15;17.15;;;10.57;;
35969;SDS011;22448;51.298;6.430;2023-04-30T07:27:42;18.00;;;10.50;;
35969;SDS011;22448;51.298;6.430;2023-04-30T07:30:10;14.40;;;10.20;;
35969;SDS011;22448;51.298;6.430;2023-04-30T07:32:37;13.27;;;10.60;;
35969;SDS011;22448;51.298;6.430;2023-04-30T07:35:06;15.05;;;10.48;;
35969;SDS011;22448;51.298;6.430;2023-04-30T07:37:33;16.17;;;10.18;;
35969;SDS011;22448;51.298;6.430;2023-04-30T07:40:01;19.95;;;10.40;;
35969;SDS011;22448;51.298;6.430;2023-04-30T07:42:29;12.95;;;9.93;;
35969;SDS011;22448;51.298;6.430;2023-04-30T07:44:55;16.20;;;11.02;;
35969;SDS011;22448;51.298;6.430;2023-04-30T07:47:22;13.98;;;9.45;;
35969;SDS011;22448;51.298;6.430;2023-04-30T07:49:50;17.60;;;11.27;;
35969;SDS011;22448;51.298;6.430;2023-04-30T07:52:18;18.83;;;11.32;;
35969;SDS011;22448;51.298;6.430;2023-04-30T07:54:45;14.48;;;10.13;;
35969;SDS011;22448;51.298;6.430;2023-04-30T07:57:12;16.42;;;10.57;;
35969;SDS011;22448;51.298;6.430;2023-04-30T07:59:39;15.43;;;10.43;;
35969;SDS011;22448;51.298;6.430;2023-04-30T08:02:07;16.08;;;10.23;;
35969;SDS011;22448;51.298;6.430;2023-04-30T08:04:34;13.32;;;10.05;;
35969;SDS011;22448;51.298;6.430;2023-04-30T08:07:02;14.77;;;10.15;;
35969;SDS011;22448;51.298;6.430;2023-04-30T08:09:29;12.70;;;9.40;;
35969;SDS011;22448;51.298;6.430;2023-04-30T08:11:57;21.88;;;10.95;;
35969;SDS011;22448;51.298;6.430;2023-04-30T08:14:24;14.23;;;10.32;;
35969;SDS011;22448;51.298;6.430;2023-04-30T08:16:51;15.73;;;11.27;;
35969;SDS011;22448;51.298;6.430;2023-04-30T08:19:18;16.25;;;11.80;;
35969;SDS011;22448;51.298;6.430;2023-04-30T08:21:45;19.63;;;13.85;;
35969;SDS011;22448;51.298;6.430;2023-04-30T08:24:12;16.35;;;11.13;;
35969;SDS011;22448;51.298;6.430;2023-04-30T08:26:39;18.13;;;10.75;;
35969;SDS011;22448;51.298;6.430;2023-04-30T08:29:06;17.92;;;10.82;;
35969;SDS011;22448;51.298;6.430;2023-04-30T08:31:35;16.23;;;10.02;;
35969;SDS011;22448;51.298;6.430;2023-04-30T08:34:02;18.48;;;10.02;;
35969;SDS011;22448;51.298;6.430;2023-04-30T08:36:29;14.05;;;9.50;;
35969;SDS011;22448;51.298;6.430;2023-04-30T08:38:56;16.45;;;9.65;;
35969;SDS011;22448;51.298;6.430;2023-04-30T08:41:25;14.48;;;8.95;;
35969;SDS011;22448;51.298;6.430;2023-04-30T08:43:53;12.65;;;9.38;;
35969;SDS011;22448;51.298;6.430;2023-04-30T08:46:23;13.20;;;9.60;;
35969;SDS011;22448;51.298;6.430;2023-04-30T08:48:51;12.38;;;7.82;;
35969;SDS011;22448;51.298;6.430;2023-04-30T08:51:18;12.20;;;8.10;;
35969;SDS011;22448;51.298;6.430;2023-04-30T08:53:46;11.48;;;7.82;;
35969;SDS011;22448;51.298;6.430;2023-04-30T08:56:16;8.45;;;6.68;;
35969;SDS011;22448;51.298;6.430;2023-04-30T08:58:43;9.52;;;6.03;;
35969;SDS011;22448;51.298;6.430;2023-04-30T09:01:10;9.68;;;6.95;;
35969;SDS011;22448;51.298;6.430;2023-04-30T09:03:37;11.18;;;6.60;;
35969;SDS011;22448;51.298;6.430;2023-04-30T09:06:04;11.35;;;7.82;;
35969;SDS011;22448;51.298;6.430;2023-04-30T09:08:42;9.45;;;7.15;;
35969;SDS011;22448;51.298;6.430;2023-04-30T09:11:19;10.15;;;7.15;;
35969;SDS011;22448;51.298;6.430;2023-04-30T09:13:50;14.98;;;8.75;;
35969;SDS011;22448;51.298;6.430;2023-04-30T09:16:22;11.27;;;7.50;;
35969;SDS011;22448;51.298;6.430;2023-04-30T09:18:51;14.52;;;7.72;;
35969;SDS011;22448;51.298;6.430;2023-04-30T09:21:34;10.90;;;6.68;;
35969;SDS011;22448;51.298;6.430;2023-04-30T09:24:02;12.50;;;6.25;;
35969;SDS011;22448;51.298;6.430;2023-04-30T09:26:35;11.43;;;7.60;;
35969;SDS011;22448;51.298;6.430;2023-04-30T09:29:04;14.45;;;7.85;;
35969;SDS011;22448;51.298;6.430;2023-04-30T09:31:36;15.88;;;7.43;;
35969;SDS011;22448;51.298;6.430;2023-04-30T09:34:04;20.17;;;10.00;;
35969;SDS011;22448;51.298;6.430;2023-04-30T09:36:34;12.60;;;8.98;;
35969;SDS011;22448;51.298;6.430;2023-04-30T09:39:05;11.90;;;6.97;;
35969;SDS011;22448;51.298;6.430;2023-04-30T09:41:41;13.38;;;7.65;;
35969;SDS011;22448;51.298;6.430;2023-04-30T09:46:56;19.83;;;10.38;;
35969;SDS011;22448;51.298;6.430;2023-04-30T09:49:24;17.33;;;9.80;;
35969;SDS011;22448;51.298;6.430;2023-04-30T09:51:56;20.90;;;10.43;;
35969;SDS011;22448;51.298;6.430;2023-04-30T09:54:24;17.83;;;10.45;;
35969;SDS011;22448;51.298;6.430;2023-04-30T09:56:53;14.77;;;9.02;;
35969;SDS011;22448;51.298;6.430;2023-04-30T09:59:28;16.17;;;8.93;;
35969;SDS011;22448;51.298;6.430;2023-04-30T10:01:57;19.35;;;9.75;;
35969;SDS011;22448;51.298;6.430;2023-04-30T10:04:30;14.40;;;7.95;;
35969;SDS011;22448;51.298;6.430;2023-04-30T10:07:11;15.60;;;7.85;;
35969;SDS011;22448;51.298;6.430;2023-04-30T10:09:50;12.93;;;7.50;;
35969;SDS011;22448;51.298;6.430;2023-04-30T10:12:25;14.98;;;8.27;;
35969;SDS011;22448;51.298;6.430;2023-04-30T10:15:01;15.20;;;7.32;;
35969;SDS011;22448;51.298;6.430;2023-04-30T10:17:35;11.55;;;7.57;;
35969;SDS011;22448;51.298;6.430;2023-04-30T10:20:09;12.30;;;7.43;;
35969;SDS011;22448;51.298;6.430;2023-04-30T10:22:39;13.93;;;7.70;;
35969;SDS011;22448;51.298;6.430;2023-04-30T10:25:07;10.85;;;7.50;;
35969;SDS011;22448;51.298;6.430;2023-04-30T10:27:36;14.88;;;7.70;;
35969;SDS011;22448;51.298;6.430;2023-04-30T10:30:05;9.38;;;5.82;;
35969;SDS011;22448;51.298;6.430;2023-04-30T10:32:50;9.95;;;5.65;;
35969;SDS011;22448;51.298;6.430;2023-04-30T10:35:27;8.75;;;5.40;;
35969;SDS011;22448;51.298;6.430;2023-04-30T10:37:59;7.85;;;5.30;;
35969;SDS011;22448;51.298;6.430;2023-04-30T10:40:35;9.63;;;6.00;;
35969;SDS011;22448;51.298;6.430;2023-04-30T10:43:03;8.80;;;6.13;;
35969;SDS011;22448;51.298;6.430;2023-04-30T10:45:34;8.38;;;6.00;;
35969;SDS011;22448;51.298;6.430;2023-04-30T10:48:04;9.45;;;6.20;;
35969;SDS011;22448;51.298;6.430;2023-04-30T10:50:32;7.90;;;6.03;;
35969;SDS011;22448;51.298;6.430;2023-04-30T10:53:04;11.05;;;5.57;;
35969;SDS011;22448;51.298;6.430;2023-04-30T10:55:32;7.68;;;4.28;;
35969;SDS011;22448;51.298;6.430;2023-04-30T10:58:29;6.65;;;4.88;;
35969;SDS011;22448;51.298;6.430;2023-04-30T11:01:13;9.57;;;6.40;;
35969;SDS011;22448;51.298;6.430;2023-04-30T11:03:42;10.48;;;5.32;;
35969;SDS011;22448;51.298;6.430;2023-04-30T11:06:47;12.30;;;6.18;;
35969;SDS011;22448;51.298;6.430;2023-04-30T11:09:17;14.82;;;6.45;;
35969;SDS011;22448;51.298;6.430;2023-04-30T11:11:45;9.85;;;5.57;;
35969;SDS011;22448;51.298;6.430;2023-04-30T11:14:15;12.48;;;5.90;;
35969;SDS011;22448;51.298;6.430;2023-04-30T11:16:49;10.65;;;4.95;;
35969;SDS011;22448;51.298;6.430;2023-04-30T11:19:19;6.70;;;4.22;;
35969;SDS011;22448;51.298;6.430;2023-04-30T11:27:25;7.53;;;4.47;;
35969;SDS011;22448;51.298;6.430;2023-04-30T11:29:53;5.32;;;3.58;;
35969;SDS011;22448;51.298;6.430;2023-04-30T11:32:24;6.20;;;4.00;;
35969;SDS011;22448;51.298;6.430;2023-04-30T11:34:53;9.63;;;4.13;;
35969;SDS011;22448;51.298;6.430;2023-04-30T11:37:27;9.32;;;4.75;;
35969;SDS011;22448;51.298;6.430;2023-04-30T11:40:04;8.60;;;4.45;;
35969;SDS011;22448;51.298;6.430;2023-04-30T11:42:39;7.53;;;4.07;;
35969;SDS011;22448;51.298;6.430;2023-04-30T11:45:12;7.70;;;4.13;;
35969;SDS011;22448;51.298;6.430;2023-04-30T11:47:43;6.55;;;4.50;;
35969;SDS011;22448;51.298;6.430;2023-04-30T11:50:13;7.90;;;4.03;;
35969;SDS011;22448;51.298;6.430;2023-04-30T11:52:43;6.88;;;4.22;;
35969;SDS011;22448;51.298;6.430;2023-04-30T11:55:16;7.78;;;3.67;;
35969;SDS011;22448;51.298;6.430;2023-04-30T11:57:46;8.80;;;4.50;;
35969;SDS011;22448;51.298;6.430;2023-04-30T12:02:42;9.27;;;4.10;;
35969;SDS011;22448;51.298;6.430;2023-04-30T12:05:12;6.65;;;4.00;;
35969;SDS011;22448;51.298;6.430;2023-04-30T12:07:45;9.45;;;4.40;;
35969;SDS011;22448;51.298;6.430;2023-04-30T12:10:18;5.05;;;3.45;;
35969;SDS011;22448;51.298;6.430;2023-04-30T12:12:46;4.90;;;3.30;;
35969;SDS011;22448;51.298;6.430;2023-04-30T12:15:18;3.90;;;2.90;;
35969;SDS011;22448;51.298;6.430;2023-04-30T12:17:53;5.88;;;3.42;;
35969;SDS011;22448;51.298;6.430;2023-04-30T12:20:26;5.30;;;3.17;;
35969;SDS011;22448;51.298;6.430;2023-04-30T12:22:55;5.15;;;2.88;;
35969;SDS011;22448;51.298;6.430;2023-04-30T12:25:23;4.72;;;2.75;;
35969;SDS011;22448;51.298;6.430;2023-04-30T12:27:53;6.10;;;2.83;;
35969;SDS011;22448;51.298;6.430;2023-04-30T12:30:22;5.70;;;3.50;;
35969;SDS011;22448;51.298;6.430;2023-04-30T12:32:52;3.92;;;2.80;;
35969;SDS011;22448;51.298;6.430;2023-04-30T12:35:22;8.30;;;3.75;;
35969;SDS011;22448;51.298;6.430;2023-04-30T12:37:51;9.93;;;4.20;;
35969;SDS011;22448;51.298;6.430;2023-04-30T12:40:20;6.75;;;4.18;;
35969;SDS011;22448;51.298;6.430;2023-04-30T12:42:58;6.47;;;3.75;;
35969;SDS011;22448;51.298;6.430;2023-04-30T12:45:50;3.78;;;2.63;;
35969;SDS011;22448;51.298;6.430;2023-04-30T12:48:19;6.00;;;3.42;;
35969;SDS011;22448;51.298;6.430;2023-04-30T12:50:54;6.25;;;3.78;;
35969;SDS011;22448;51.298;6.430;2023-04-30T12:53:24;8.48;;;4.63;;
35969;SDS011;22448;51.298;6.430;2023-04-30T12:58:35;9.52;;;6.35;;
35969;SDS011;22448;51.298;6.430;2023-04-30T13:01:04;6.28;;;4.25;;
35969;SDS011;22448;51.298;6.430;2023-04-30T13:03:36;8.15;;;3.40;;
35969;SDS011;22448;51.298;6.430;2023-04-30T13:06:03;7.88;;;4.32;;
35969;SDS011;22448;51.298;6.430;2023-04-30T13:08:32;10.20;;;5.20;;
35969;SDS011;22448;51.298;6.430;2023-04-30T13:13:42;6.22;;;4.07;;
35969;SDS011;22448;51.298;6.430;2023-04-30T13:16:09;5.65;;;3.50;;
35969;SDS011;22448;51.298;6.430;2023-04-30T13:18:36;4.95;;;3.28;;
35969;SDS011;22448;51.298;6.430;2023-04-30T13:21:03;8.57;;;3.75;;
35969;SDS011;22448;51.298;6.430;2023-04-30T13:23:30;6.97;;;3.47;;
35969;SDS011;22448;51.298;6.430;2023-04-30T13:26:10;5.47;;;3.20;;
35969;SDS011;22448;51.298;6.430;2023-04-30T13:28:37;4.78;;;3.35;;
35969;SDS011;22448;51.298;6.430;2023-04-30T13:31:04;4.93;;;3.47;;
35969;SDS011;22448;51.298;6.430;2023-04-30T13:33:31;4.47;;;3.22;;
35969;SDS011;22448;51.298;6.430;2023-04-30T13:35:58;6.72;;;2.90;;
35969;SDS011;22448;51.298;6.430;2023-04-30T13:38:25;4.55;;;2.58;;
35969;SDS011;22448;51.298;6.430;2023-04-30T13:40:52;3.67;;;2.08;;
35969;SDS011;22448;51.298;6.430;2023-04-30T13:43:19;3.15;;;2.33;;
35969;SDS011;22448;51.298;6.430;2023-04-30T13:45:46;3.88;;;2.70;;
35969;SDS011;22448;51.298;6.430;2023-04-30T13:48:13;4.85;;;2.50;;
35969;SDS011;22448;51.298;6.430;2023-04-30T13:50:40;3.60;;;2.60;;
35969;SDS011;22448;51.298;6.430;2023-04-30T13:53:08;4.47;;;2.00;;
35969;SDS011;22448;51.298;6.430;2023-04-30T13:55:34;3.83;;;2.22;;
35969;SDS011;22448;51.298;6.430;2023-04-30T13:58:01;4.00;;;2.40;;
35969;SDS011;22448;51.298;6.430;2023-04-30T14:00:29;3.58;;;2.63;;
35969;SDS011;22448;51.298;6.430;2023-04-30T14:02:55;5.65;;;2.50;;
35969;SDS011;22448;51.298;6.430;2023-04-30T14:05:23;4.63;;;2.85;;
35969;SDS011;22448;51.298;6.430;2023-04-30T14:07:50;4.05;;;2.70;;
35969;SDS011;22448;51.298;6.430;2023-04-30T14:10:17;8.85;;;2.80;;
35969;SDS011;22448;51.298;6.430;2023-04-30T14:12:44;2.75;;;2.15;;
35969;SDS011;22448;51.298;6.430;2023-04-30T14:15:11;4.30;;;2.20;;
35969;SDS011;22448;51.298;6.430;2023-04-30T14:17:38;3.30;;;1.92;;
35969;SDS011;22448;51.298;6.430;2023-04-30T14:20:05;5.53;;;2.20;;
35969;SDS011;22448;51.298;6.430;2023-04-30T14:22:33;3.58;;;1.80;;
35969;SDS011;22448;51.298;6.430;2023-04-30T14:25:04;3.85;;;2.05;;
35969;SDS011;22448;51.298;6.430;2023-04-30T14:27:31;6.07;;;2.38;;
35969;SDS011;22448;51.298;6.430;2023-04-30T14:29:58;3.83;;;2.13;;
35969;SDS011;22448;51.298;6.430;2023-04-30T14:32:25;5.45;;;2.20;;
35969;SDS011;22448;51.298;6.430;2023-04-30T14:34:53;6.85;;;2.10;;
35969;SDS011;22448;51.298;6.430;2023-04-30T14:37:20;4.95;;;1.70;;
35969;SDS011;22448;51.298;6.430;2023-04-30T14:39:47;4.20;;;1.88;;
35969;SDS011;22448;51.298;6.430;2023-04-30T14:42:14;3.85;;;1.80;;
35969;SDS011;22448;51.298;6.430;2023-04-30T14:44:41;3.00;;;1.67;;
35969;SDS011;22448;51.298;6.430;2023-04-30T14:47:08;2.50;;;1.45;;
35969;SDS011;22448;51.298;6.430;2023-04-30T14:49:35;4.45;;;1.75;;
35969;SDS011;22448;51.298;6.430;2023-04-30T14:52:02;3.92;;;1.77;;
35969;SDS011;22448;51.298;6.430;2023-04-30T14:54:29;3.70;;;1.50;;
35969;SDS011;22448;51.298;6.430;2023-04-30T14:56:56;6.18;;;2.20;;
35969;SDS011;22448;51.298;6.430;2023-04-30T14:59:23;6.05;;;1.45;;
35969;SDS011;22448;51.298;6.430;2023-04-30T15:01:50;3.53;;;2.28;;
35969;SDS011;22448;51.298;6.430;2023-04-30T15:04:17;9.02;;;2.40;;
35969;SDS011;22448;51.298;6.430;2023-04-30T15:06:45;3.85;;;2.08;;
35969;SDS011;22448;51.298;6.430;2023-04-30T15:09:12;4.93;;;2.10;;
35969;SDS011;22448;51.298;6.430;2023-04-30T15:11:39;4.88;;;2.50;;
35969;SDS011;22448;51.298;6.430;2023-04-30T15:14:06;7.45;;;2.70;;
35969;SDS011;22448;51.298;6.430;2023-04-30T15:16:34;4.53;;;2.20;;
35969;SDS011;22448;51.298;6.430;2023-04-30T15:19:01;5.15;;;2.33;;
35969;SDS011;22448;51.298;6.430;2023-04-30T15:21:29;6.20;;;2.60;;
35969;SDS011;22448;51.298;6.430;2023-04-30T15:23:56;4.30;;;2.30;;
35969;SDS011;22448;51.298;6.430;2023-04-30T15:26:23;7.15;;;1.95;;
35969;SDS011;22448;51.298;6.430;2023-04-30T15:28:51;3.28;;;1.92;;
35969;SDS011;22448;51.298;6.430;2023-04-30T15:31:18;3.22;;;1.80;;
35969;SDS011;22448;51.298;6.430;2023-04-30T15:33:45;3.75;;;1.85;;
35969;SDS011;22448;51.298;6.430;2023-04-30T15:36:12;5.57;;;2.22;;
35969;SDS011;22448;51.298;6.430;2023-04-30T15:38:39;7.20;;;2.42;;
35969;SDS011;22448;51.298;6.430;2023-04-30T15:41:06;6.57;;;2.28;;
35969;SDS011;22448;51.298;6.430;2023-04-30T15:43:33;2.38;;;1.50;;
35969;SDS011;22448;51.298;6.430;2023-04-30T15:46:01;4.07;;;1.60;;
35969;SDS011;22448;51.298;6.430;2023-04-30T15:48:28;5.55;;;2.15;;
35969;SDS011;22448;51.298;6.430;2023-04-30T15:50:55;2.95;;;1.70;;
35969;SDS011;22448;51.298;6.430;2023-04-30T15:53:22;8.55;;;1.83;;
35969;SDS011;22448;51.298;6.430;2023-04-30T15:55:49;6.90;;;1.65;;
35969;SDS011;22448;51.298;6.430;2023-04-30T15:58:17;6.65;;;1.95;;
35969;SDS011;22448;51.298;6.430;2023-04-30T16:00:44;5.43;;;2.03;;
35969;SDS011;22448;51.298;6.430;2023-04-30T16:03:11;3.72;;;1.50;;
35969;SDS011;22448;51.298;6.430;2023-04-30T16:05:38;4.38;;;1.90;;
35969;SDS011;22448;51.298;6.430;2023-04-30T16:08:07;4.40;;;2.00;;
35969;SDS011;22448;51.298;6.430;2023-04-30T16:10:35;9.30;;;1.75;;
35969;SDS011;22448;51.298;6.430;2023-04-30T16:13:04;3.38;;;1.58;;
35969;SDS011;22448;51.298;6.430;2023-04-30T16:15:31;4.78;;;1.75;;
35969;SDS011;22448;51.298;6.430;2023-04-30T16:17:58;5.78;;;2.10;;
35969;SDS011;22448;51.298;6.430;2023-04-30T16:20:25;6.93;;;2.25;;
35969;SDS011;22448;51.298;6.430;2023-04-30T16:22:53;7.45;;;1.90;;
35969;SDS011;22448;51.298;6.430;2023-04-30T16:25:21;4.88;;;1.95;;
35969;SDS011;22448;51.298;6.430;2023-04-30T16:27:48;5.85;;;2.20;;
35969;SDS011;22448;51.298;6.430;2023-04-30T16:30:15;4.57;;;2.00;;
35969;SDS011;22448;51.298;6.430;2023-04-30T16:32:42;4.10;;;2.22;;
35969;SDS011;22448;51.298;6.430;2023-04-30T16:35:10;2.42;;;1.95;;
35969;SDS011;22448;51.298;6.430;2023-04-30T16:37:36;7.05;;;2.28;;
35969;SDS011;22448;51.298;6.430;2023-04-30T16:40:04;7.50;;;2.10;;
35969;SDS011;22448;51.298;6.430;2023-04-30T16:42:32;3.80;;;1.80;;
35969;SDS011;22448;51.298;6.430;2023-04-30T16:45:00;4.82;;;2.28;;
35969;SDS011;22448;51.298;6.430;2023-04-30T16:47:27;4.72;;;1.95;;
35969;SDS011;22448;51.298;6.430;2023-04-30T16:49:55;5.32;;;1.80;;
35969;SDS011;22448;51.298;6.430;2023-04-30T16:52:24;4.63;;;1.90;;
35969;SDS011;22448;51.298;6.430;2023-04-30T16:54:51;5.43;;;2.08;;
35969;SDS011;22448;51.298;6.430;2023-04-30T16:57:18;3.75;;;1.70;;
35969;SDS011;22448;51.298;6.430;2023-04-30T16:59:46;4.45;;;1.90;;
35969;SDS011;22448;51.298;6.430;2023-04-30T17:02:13;4.93;;;1.90;;
35969;SDS011;22448;51.298;6.430;2023-04-30T17:04:41;3.92;;;1.83;;
35969;SDS011;22448;51.298;6.430;2023-04-30T17:07:08;2.03;;;1.33;;